createdAt,value
2017-12-08T00:00:57.818Z,99582.13
2017-12-08T00:03:23.621Z,99576.68
2017-12-08T00:05:49.404Z,99570.92
2017-12-08T00:08:15.218Z,99574.15
2017-12-08T00:10:41.032Z,99579.13
2017-12-08T00:13:06.835Z,99568.94
2017-12-08T00:15:32.795Z,99568.16
2017-12-08T00:17:58.568Z,99559.05
2017-12-08T00:20:25.181Z,99565.70
2017-12-08T00:22:50.977Z,99570.69
2017-12-08T00:25:16.767Z,99559.44
2017-12-08T00:27:42.550Z,99571.23
2017-12-08T00:30:08.355Z,99566.17
2017-12-08T00:32:34.159Z,99579.17
2017-12-08T00:34:59.950Z,99575.24
2017-12-08T00:37:25.744Z,99575.24
2017-12-08T00:39:51.547Z,99573.18
2017-12-08T00:42:17.338Z,99570.84
2017-12-08T00:44:43.118Z,99571.98
2017-12-08T00:47:09.155Z,99564.31
2017-12-08T00:49:34.964Z,99569.99
2017-12-08T00:52:00.759Z,99574.36
2017-12-08T00:54:26.551Z,99577.86
2017-12-08T00:56:52.347Z,99580.23
2017-12-08T00:59:18.145Z,99578.72
2017-12-08T01:01:43.973Z,99575.65
2017-12-08T01:04:09.767Z,99579.03
2017-12-08T01:06:35.538Z,99588.58
2017-12-08T01:09:01.345Z,99579.42
2017-12-08T01:11:27.142Z,99570.52
2017-12-08T01:13:52.926Z,99586.91
2017-12-08T01:16:18.755Z,99582.31
2017-12-08T01:18:44.559Z,99586.91
2017-12-08T01:21:10.371Z,99588.15
2017-12-08T01:23:36.178Z,99586.98
2017-12-08T01:26:01.966Z,99577.76
2017-12-08T01:28:27.761Z,99583.80
2017-12-08T01:30:53.749Z,99576.05
2017-12-08T01:33:19.567Z,99578.92
2017-12-08T01:35:45.358Z,99580.88
2017-12-08T01:38:11.184Z,99576.71
2017-12-08T01:43:09.546Z,99579.44
2017-12-08T01:45:35.672Z,99581.18
2017-12-08T01:48:01.488Z,99581.45
2017-12-08T01:50:27.283Z,99577.95
2017-12-08T01:52:53.074Z,99578.45
2017-12-08T01:55:18.867Z,99575.34
2017-12-08T01:57:44.747Z,99567.77
2017-12-08T02:00:10.575Z,99574.14
2017-12-08T02:02:36.372Z,99569.23
2017-12-08T02:05:02.176Z,99577.48
2017-12-08T02:07:28.092Z,99580.95
2017-12-08T02:09:53.880Z,99583.63
2017-12-08T02:12:19.677Z,99588.08
2017-12-08T02:14:45.479Z,99588.08
2017-12-08T02:17:11.595Z,99582.47
2017-12-08T02:19:37.393Z,99588.08
2017-12-08T02:22:03.223Z,99579.70
2017-12-08T02:24:29.052Z,99581.53
2017-12-08T02:26:54.852Z,99580.52
2017-12-08T02:29:20.677Z,99572.97
2017-12-08T02:31:46.489Z,99575.39
2017-12-08T02:34:12.294Z,99573.09
2017-12-08T02:36:38.442Z,99574.64
2017-12-08T02:39:04.244Z,99575.34
2017-12-08T02:41:30.054Z,99571.22
2017-12-08T02:43:56.217Z,99573.47
2017-12-08T02:46:22.059Z,99575.26
2017-12-08T02:48:47.886Z,99566.05
2017-12-08T02:51:13.709Z,99567.56
2017-12-08T02:53:39.518Z,99568.20
2017-12-08T02:56:05.395Z,99567.39
2017-12-08T02:58:31.219Z,99563.80
2017-12-08T03:00:57.050Z,99563.25
2017-12-08T03:03:22.894Z,99558.39
2017-12-08T03:05:48.715Z,99561.58
2017-12-08T03:08:14.526Z,99558.58
2017-12-08T03:10:40.376Z,99562.97
2017-12-08T03:13:06.191Z,99557.95
2017-12-08T03:15:31.987Z,99562.61
2017-12-08T03:17:58.125Z,99567.07
2017-12-08T03:20:23.951Z,99571.89
2017-12-08T03:22:49.772Z,99568.11
2017-12-08T03:25:15.591Z,99576.25
2017-12-08T03:27:41.388Z,99575.61
2017-12-08T03:30:07.184Z,99565.20
2017-12-08T03:32:33.021Z,99569.47
2017-12-08T03:34:58.841Z,99563.37
2017-12-08T03:37:24.708Z,99557.25
2017-12-08T03:39:50.483Z,99552.16
2017-12-08T03:42:16.301Z,99553.66
2017-12-08T03:44:42.115Z,99552.14
2017-12-08T03:47:08.314Z,99548.32
2017-12-08T03:49:34.144Z,99545.66
2017-12-08T03:51:59.955Z,99547.71
2017-12-08T03:54:26.035Z,99555.95
2017-12-08T03:56:51.841Z,99551.52
2017-12-08T03:59:17.639Z,99565.63
2017-12-08T04:01:43.461Z,99563.70
2017-12-08T04:04:09.261Z,99551.84
2017-12-08T04:06:35.101Z,99558.20
2017-12-08T04:09:00.899Z,99560.14
2017-12-08T04:11:26.691Z,99567.18
2017-12-08T04:13:52.509Z,99566.97
2017-12-08T04:16:18.303Z,99551.11
2017-12-08T04:18:44.110Z,99543.92
2017-12-08T04:21:10.184Z,99553.23
2017-12-08T04:23:36.008Z,99556.91
2017-12-08T04:26:01.817Z,99551.58
2017-12-08T04:28:27.659Z,99561.05
2017-12-08T04:30:53.456Z,99560.19
2017-12-08T04:33:19.684Z,99562.02
2017-12-08T04:35:45.483Z,99565.91
2017-12-08T04:38:11.295Z,99570.58
2017-12-08T04:40:37.441Z,99571.60
2017-12-08T04:43:03.243Z,99576.44
2017-12-08T04:45:29.054Z,99575.56
2017-12-08T04:47:54.867Z,99574.03
2017-12-08T04:50:20.671Z,99578.02
2017-12-08T04:52:46.459Z,99588.02
2017-12-08T04:55:12.401Z,99589.59
2017-12-08T04:57:38.208Z,99588.27
2017-12-08T05:00:04.015Z,99586.93
2017-12-08T05:02:30.114Z,99594.23
2017-12-08T05:04:55.932Z,99594.19
2017-12-08T05:07:21.732Z,99592.38
2017-12-08T05:09:47.559Z,99598.20
2017-12-08T05:12:13.362Z,99604.81
2017-12-08T05:14:39.175Z,99601.41
2017-12-08T05:17:05.011Z,99609.52
2017-12-08T05:19:30.837Z,99601.69
2017-12-08T05:21:56.669Z,99595.59
2017-12-08T05:24:22.518Z,99595.22
2017-12-08T05:26:56.335Z,99589.34
2017-12-08T05:37:54.367Z,99603.45
2017-12-08T05:40:20.155Z,99598.81
2017-12-08T05:42:45.957Z,99602.16
2017-12-08T05:45:12.075Z,99583.61
2017-12-08T05:47:37.863Z,99594.92
2017-12-08T05:50:03.643Z,99587.08
2017-12-08T05:52:29.445Z,99589.73
2017-12-08T05:54:55.313Z,99597.06
2017-12-08T05:57:21.125Z,99596.05
2017-12-08T05:59:46.956Z,99593.20
2017-12-08T06:02:12.763Z,99591.15
2017-12-08T06:04:38.567Z,99596.30
2017-12-08T06:07:04.367Z,99589.70
2017-12-08T06:09:30.158Z,99589.54
2017-12-08T06:11:55.951Z,99590.48
2017-12-08T06:14:21.789Z,99590.31
2017-12-08T06:16:47.595Z,99584.36
2017-12-08T06:19:13.383Z,99589.20
2017-12-08T06:21:39.236Z,99589.25
2017-12-08T06:24:05.048Z,99590.92
2017-12-08T06:26:30.856Z,99590.10
2017-12-08T06:28:56.652Z,99591.39
2017-12-08T06:31:22.451Z,99592.62
2017-12-08T06:33:48.271Z,99587.66
2017-12-08T06:36:14.076Z,99595.03
2017-12-08T06:38:39.860Z,99586.29
2017-12-08T06:41:05.695Z,99594.77
2017-12-08T06:43:31.490Z,99591.73
2017-12-08T06:45:57.279Z,99592.12
2017-12-08T06:48:23.339Z,99584.58
2017-12-08T06:50:49.144Z,99589.45
2017-12-08T06:53:14.918Z,99592.95
2017-12-08T06:55:40.724Z,99592.62
2017-12-08T06:58:06.510Z,99603.39
2017-12-08T07:00:32.299Z,99608.08
2017-12-08T07:02:58.098Z,99605.06
2017-12-08T07:05:23.892Z,99603.68
2017-12-08T07:07:49.694Z,99600.87
2017-12-08T07:10:15.520Z,99622.70
2017-12-08T07:12:41.340Z,99621.69
2017-12-08T07:15:07.269Z,99622.38
2017-12-08T07:17:33.228Z,99621.06
2017-12-08T07:19:59.026Z,99632.52
2017-12-08T07:22:24.823Z,99631.05
2017-12-08T07:24:50.672Z,99636.88
2017-12-08T07:27:16.476Z,99636.37
2017-12-08T07:29:42.373Z,99642.86
2017-12-08T07:32:08.187Z,99642.72
2017-12-08T07:34:33.998Z,99637.13
2017-12-08T07:36:59.801Z,99640.33
2017-12-08T07:39:25.618Z,99645.39
2017-12-08T07:41:51.412Z,99642.39
2017-12-08T07:44:17.210Z,99637.95
2017-12-08T07:46:43.113Z,99634.28
2017-12-08T07:49:09.154Z,99621.33
2017-12-08T07:51:34.989Z,99628.84
2017-12-08T07:54:00.955Z,99626.13
2017-12-08T07:56:26.810Z,99624.98
2017-12-08T07:58:52.800Z,99623.61
2017-12-08T08:01:18.927Z,99616.08
2017-12-08T08:03:44.744Z,99613.84
2017-12-08T08:06:10.557Z,99606.60
2017-12-08T08:08:37.407Z,99613.78
2017-12-08T08:11:03.595Z,99607.69
2017-12-08T08:13:29.691Z,99604.82
2017-12-08T08:15:55.847Z,99613.55
2017-12-08T08:18:22.014Z,99605.81
2017-12-08T08:20:48.149Z,99606.69
2017-12-08T08:23:14.322Z,99603.63
2017-12-08T08:25:40.123Z,99601.29
2017-12-08T08:28:05.992Z,99601.09
2017-12-08T08:30:31.805Z,99615.34
2017-12-08T08:32:57.638Z,99612.82
2017-12-08T08:35:24.068Z,99618.16
2017-12-08T08:37:49.866Z,99621.15
2017-12-08T08:40:16.204Z,99624.09
2017-12-08T08:42:42.066Z,99629.05
2017-12-08T08:45:08.015Z,99632.20
2017-12-08T08:47:33.815Z,99626.83
2017-12-08T08:49:59.899Z,99635.51
2017-12-08T08:52:25.696Z,99633.20
2017-12-08T08:54:51.492Z,99634.83
2017-12-08T08:57:17.794Z,99640.65
2017-12-08T08:59:43.749Z,99644.64
2017-12-08T09:02:10.746Z,99646.80
2017-12-08T09:04:36.963Z,99636.38
2017-12-08T09:07:02.997Z,99659.14
2017-12-08T09:09:28.883Z,99651.70
2017-12-08T09:11:54.696Z,99646.06
2017-12-08T09:14:20.499Z,99649.13
2017-12-08T09:16:46.563Z,99643.16
2017-12-08T09:19:12.359Z,99646.31
2017-12-08T09:21:38.195Z,99656.19
2017-12-08T09:24:04.524Z,99659.52
2017-12-08T09:26:30.319Z,99658.28
2017-12-08T09:28:56.201Z,99657.24
2017-12-08T09:31:22.388Z,99663.82
2017-12-08T09:33:48.212Z,99667.41
2017-12-08T09:36:14.007Z,99667.66
2017-12-08T09:38:40.223Z,99681.34
2017-12-08T09:41:06.287Z,99676.34
2017-12-08T09:43:32.078Z,99681.27
2017-12-08T09:45:58.220Z,99686.78
2017-12-08T09:48:24.251Z,99689.27
2017-12-08T09:50:50.082Z,99700.11
2017-12-08T09:53:15.910Z,99687.81
2017-12-08T09:55:41.686Z,99686.05
2017-12-08T09:58:07.498Z,99688.24
2017-12-08T10:00:33.331Z,99689.25
2017-12-08T10:02:59.128Z,99690.68
2017-12-08T10:05:24.914Z,99677.06
2017-12-08T10:07:50.736Z,99684.91
2017-12-08T10:10:16.538Z,99680.05
2017-12-08T10:12:42.331Z,99675.39
2017-12-08T10:15:08.139Z,99675.77
2017-12-08T10:17:34.048Z,99675.77
2017-12-08T10:19:59.847Z,99670.77
2017-12-08T10:22:25.663Z,99671.53
2017-12-08T10:24:51.465Z,99669.44
2017-12-08T10:27:17.598Z,99669.91
2017-12-08T10:29:43.419Z,99659.87
2017-12-08T10:32:09.364Z,99663.63
2017-12-08T10:34:35.156Z,99654.47
2017-12-08T10:37:00.977Z,99658.09
2017-12-08T10:39:26.776Z,99657.77
2017-12-08T10:41:52.567Z,99646.34
2017-12-08T10:44:19.260Z,99656.53
2017-12-08T10:46:45.054Z,99648.24
2017-12-08T10:49:10.839Z,99654.38
2017-12-08T10:51:36.651Z,99648.44
2017-12-08T10:54:02.462Z,99651.00
2017-12-08T10:56:28.327Z,99655.00
2017-12-08T10:58:54.151Z,99651.42
2017-12-08T11:01:19.964Z,99659.53
2017-12-08T11:03:45.764Z,99657.52
2017-12-08T11:06:11.861Z,99658.20
2017-12-08T11:08:37.662Z,99653.44
2017-12-08T11:11:03.453Z,99654.72
2017-12-08T11:13:30.291Z,99646.80
2017-12-08T11:15:56.158Z,99651.47
2017-12-08T11:18:22.146Z,99655.23
2017-12-08T11:20:48.507Z,99654.17
2017-12-08T11:23:14.318Z,99643.30
2017-12-08T11:25:40.115Z,99658.32
2017-12-08T11:28:05.944Z,99659.34
2017-12-08T11:30:31.876Z,99660.30
2017-12-08T11:32:57.686Z,99650.48
2017-12-08T11:35:23.549Z,99657.34
2017-12-08T11:37:49.348Z,99657.50
2017-12-08T11:40:15.264Z,99654.80
2017-12-08T11:42:41.146Z,99660.79
2017-12-08T11:45:07.054Z,99655.81
2017-12-08T11:47:33.391Z,99658.59
2017-12-08T11:49:59.561Z,99657.27
2017-12-08T11:52:25.347Z,99665.64
2017-12-08T11:54:51.148Z,99662.03
2017-12-08T11:57:17.171Z,99664.14
2017-12-08T11:59:43.275Z,99663.47
2017-12-08T12:02:09.173Z,99661.00
2017-12-08T12:04:34.964Z,99671.55
2017-12-08T12:07:00.739Z,99664.01
2017-12-08T12:09:26.567Z,99667.05
2017-12-08T12:11:52.351Z,99672.68
2017-12-08T12:14:18.156Z,99665.31
2017-12-08T12:16:44.202Z,99672.44
2017-12-08T12:19:09.993Z,99663.22
2017-12-08T12:21:35.775Z,99665.52
2017-12-08T12:24:01.560Z,99670.06
2017-12-08T12:26:27.354Z,99683.02
2017-12-08T12:28:53.131Z,99673.25
2017-12-08T12:31:19.096Z,99677.09
2017-12-08T12:33:44.919Z,99684.61
2017-12-08T12:36:10.702Z,99681.57
2017-12-08T12:38:36.515Z,99681.81
2017-12-08T12:41:02.302Z,99677.69
2017-12-08T12:43:28.092Z,99684.10
2017-12-08T12:45:53.898Z,99676.06
2017-12-08T12:48:19.694Z,99689.19
2017-12-08T12:50:45.486Z,99685.66
2017-12-08T12:53:11.303Z,99687.36
2017-12-08T12:55:37.113Z,99681.32
2017-12-08T12:58:02.896Z,99687.56
2017-12-08T13:00:28.711Z,99683.75
2017-12-08T13:02:54.504Z,99684.73
2017-12-08T13:05:20.299Z,99681.63
2017-12-08T13:07:46.114Z,99684.89
2017-12-08T13:10:11.908Z,99677.91
2017-12-08T13:12:37.694Z,99670.50
2017-12-08T13:15:03.507Z,99656.63
2017-12-08T13:17:29.290Z,99650.02
2017-12-08T13:19:55.087Z,99650.87
2017-12-08T13:22:20.919Z,99645.11
2017-12-08T13:24:46.704Z,99650.23
2017-12-08T13:27:12.487Z,99651.05
2017-12-08T13:29:38.306Z,99675.77
2017-12-08T13:32:04.121Z,99677.81
2017-12-08T13:34:29.917Z,99675.52
2017-12-08T13:36:55.704Z,99683.70
2017-12-08T13:39:21.544Z,99676.22
2017-12-08T13:41:47.380Z,99664.71
2017-12-08T13:44:13.174Z,99668.19
2017-12-08T13:46:38.955Z,99670.08
2017-12-08T13:49:04.796Z,99674.41
2017-12-08T13:51:30.563Z,99685.91
2017-12-08T13:54:08.930Z,99708.22
2017-12-08T13:56:52.739Z,99702.06
2017-12-08T13:59:18.684Z,99701.11
2017-12-08T14:01:44.479Z,99709.34
2017-12-08T14:04:10.490Z,99711.81
2017-12-08T14:06:36.303Z,99707.80
2017-12-08T14:09:02.151Z,99708.41
2017-12-08T14:11:28.036Z,99705.14
2017-12-08T14:13:53.904Z,99699.39
2017-12-08T14:16:21.077Z,99700.88
2017-12-08T14:18:46.895Z,99705.82
2017-12-08T14:21:12.695Z,99697.66
2017-12-08T14:23:38.489Z,99707.05
2017-12-08T14:26:04.697Z,99707.44
2017-12-08T14:28:30.494Z,99721.78
2017-12-08T14:30:56.307Z,99715.60
2017-12-08T14:33:22.150Z,99716.46
2017-12-08T14:35:47.937Z,99710.39
2017-12-08T14:38:13.740Z,99718.94
2017-12-08T14:40:39.571Z,99713.26
2017-12-08T14:43:05.370Z,99721.14
2017-12-08T14:45:31.162Z,99703.80
2017-12-08T14:47:57.599Z,99701.33
2017-12-08T14:50:23.384Z,99702.94
2017-12-08T14:52:49.579Z,99700.69
2017-12-08T14:55:15.659Z,99700.22
2017-12-08T14:57:41.462Z,99703.49
2017-12-08T15:00:07.256Z,99702.87
2017-12-08T15:02:33.533Z,99702.98
2017-12-08T15:04:59.319Z,99706.02
2017-12-08T15:07:25.140Z,99707.85
2017-12-08T15:09:50.972Z,99711.26
2017-12-08T15:12:17.059Z,99723.71
2017-12-08T15:14:42.864Z,99718.77
2017-12-08T15:17:09.326Z,99724.82
2017-12-08T15:19:35.172Z,99725.44
2017-12-08T15:22:01.181Z,99722.35
2017-12-08T15:24:26.988Z,99720.90
2017-12-08T15:26:53.359Z,99708.72
2017-12-08T15:29:19.353Z,99706.93
2017-12-08T15:31:45.304Z,99709.70
2017-12-08T15:34:11.100Z,99716.20
2017-12-08T15:36:37.007Z,99722.64
2017-12-08T15:39:02.838Z,99727.64
2017-12-08T15:41:28.630Z,99727.41
2017-12-08T15:43:54.442Z,99727.36
2017-12-08T15:46:20.246Z,99731.73
2017-12-08T15:48:46.124Z,99736.32
2017-12-08T15:51:11.973Z,99742.48
2017-12-08T15:53:37.784Z,99758.45
2017-12-08T15:56:03.970Z,99750.25
2017-12-08T15:58:29.773Z,99753.28
2017-12-08T16:00:55.564Z,99744.96
2017-12-08T16:03:21.351Z,99753.38
2017-12-08T16:05:47.155Z,99751.91
2017-12-08T16:08:12.973Z,99744.41
2017-12-08T16:10:38.784Z,99739.29
2017-12-08T16:13:04.592Z,99731.61
2017-12-08T16:15:30.727Z,99737.19
2017-12-08T16:17:56.522Z,99740.32
2017-12-08T16:20:22.310Z,99728.77
2017-12-08T16:22:48.130Z,99738.27
2017-12-08T16:25:13.941Z,99738.70
2017-12-08T16:27:39.739Z,99739.59
2017-12-08T16:30:05.561Z,99741.61
2017-12-08T16:32:31.351Z,99745.25
2017-12-08T16:34:57.146Z,99760.77
2017-12-08T16:37:23.187Z,99758.25
2017-12-08T16:39:49.505Z,99758.91
2017-12-08T16:42:15.292Z,99766.73
2017-12-08T16:44:41.111Z,99767.27
2017-12-08T16:47:06.912Z,99770.92
2017-12-08T16:49:32.695Z,99778.17
2017-12-08T16:51:58.506Z,99780.52
2017-12-08T16:54:24.307Z,99776.50
2017-12-08T16:56:50.450Z,99783.97
2017-12-08T16:59:16.243Z,99785.32
2017-12-08T17:01:42.028Z,99783.22
2017-12-08T17:04:07.835Z,99777.99
2017-12-08T17:06:33.631Z,99788.14
2017-12-08T17:08:59.441Z,99773.09
2017-12-08T17:11:25.251Z,99786.88
2017-12-08T17:13:51.035Z,99785.66
2017-12-08T17:16:16.884Z,99785.46
2017-12-08T17:18:42.702Z,99797.22
2017-12-08T17:21:08.487Z,99804.59
2017-12-08T17:23:34.286Z,99803.31
2017-12-08T17:26:00.109Z,99797.91
2017-12-08T17:28:25.912Z,99809.73
2017-12-08T17:30:51.695Z,99802.41
2017-12-08T17:33:17.510Z,99808.92
2017-12-08T17:35:44.367Z,99809.84
2017-12-08T17:38:10.151Z,99802.59
2017-12-08T17:40:35.955Z,99812.14
2017-12-08T17:43:01.735Z,99818.00
2017-12-08T17:45:27.533Z,99808.98
2017-12-08T17:47:53.565Z,99813.27
2017-12-08T17:50:19.346Z,99818.87
2017-12-08T17:52:45.169Z,99817.89
2017-12-08T17:55:11.315Z,99816.42
2017-12-08T17:57:37.119Z,99816.54
2017-12-08T18:00:02.931Z,99820.69
2017-12-08T18:02:28.746Z,99817.28
2017-12-08T18:04:54.548Z,99813.94
2017-12-08T18:07:20.359Z,99817.15
2017-12-08T18:09:46.147Z,99820.06
2017-12-08T18:12:11.960Z,99819.97
2017-12-08T18:14:37.806Z,99820.66
2017-12-08T18:17:03.638Z,99826.27
2017-12-08T18:19:29.549Z,99837.34
2017-12-08T18:21:55.718Z,99833.75
2017-12-08T18:24:21.512Z,99828.61
2017-12-08T18:26:47.312Z,99838.33
2017-12-08T18:29:13.138Z,99835.97
2017-12-08T18:31:38.947Z,99836.69
2017-12-08T18:34:04.735Z,99840.22
2017-12-08T18:36:30.760Z,99838.98
2017-12-08T18:38:56.559Z,99836.34
2017-12-08T18:41:22.375Z,99842.38
2017-12-08T18:43:48.209Z,99834.70
2017-12-08T18:46:13.998Z,99835.94
2017-12-08T18:48:39.799Z,99834.42
2017-12-08T18:51:05.637Z,99837.34
2017-12-08T18:53:31.435Z,99830.99
2017-12-08T18:55:57.244Z,99832.92
2017-12-08T18:58:23.335Z,99842.49
2017-12-08T19:00:49.145Z,99835.13
2017-12-08T19:03:14.946Z,99838.84
2017-12-08T19:05:40.775Z,99842.06
2017-12-08T19:08:06.570Z,99843.44
2017-12-08T19:10:32.363Z,99839.67
2017-12-08T19:12:58.187Z,99849.02
2017-12-08T19:15:23.971Z,99852.34
2017-12-08T19:17:49.763Z,99861.11
2017-12-08T19:20:15.586Z,99868.91
2017-12-08T19:22:41.378Z,99868.80
2017-12-08T19:25:07.183Z,99865.08
2017-12-08T19:27:33.006Z,99869.71
2017-12-08T19:29:58.808Z,99877.89
2017-12-08T19:32:24.615Z,99875.67
2017-12-08T19:34:50.478Z,99874.38
2017-12-08T19:37:16.292Z,99882.02
2017-12-08T19:39:42.097Z,99887.45
2017-12-08T19:42:07.936Z,99880.94
2017-12-08T19:44:33.758Z,99881.00
2017-12-08T19:46:59.585Z,99888.20
2017-12-08T19:49:25.400Z,99893.03
2017-12-08T19:51:51.196Z,99894.01
2017-12-08T19:54:17.071Z,99891.53
2017-12-08T19:56:43.026Z,99896.91
2017-12-08T19:59:08.825Z,99898.52
2017-12-08T20:01:34.642Z,99897.17
2017-12-08T20:04:00.447Z,99899.96
2017-12-08T20:06:26.270Z,99899.20
2017-12-08T20:08:52.109Z,99900.39
2017-12-08T20:11:17.976Z,99905.12
2017-12-08T20:13:43.784Z,99903.13
2017-12-08T20:16:09.574Z,99908.23
2017-12-08T20:18:35.387Z,99909.04
2017-12-08T20:21:01.228Z,99910.45
2017-12-08T20:23:27.082Z,99911.03
2017-12-08T20:25:52.892Z,99912.27
2017-12-08T20:28:18.721Z,99915.83
2017-12-08T20:30:44.829Z,99931.25
2017-12-08T20:33:10.644Z,99914.58
2017-12-08T20:35:36.463Z,99924.53
2017-12-08T20:38:02.320Z,99929.95
2017-12-08T20:40:28.135Z,99926.58
2017-12-08T20:42:53.924Z,99925.77
2017-12-08T20:45:19.766Z,99926.13
2017-12-08T20:47:45.610Z,99924.74
2017-12-08T20:50:11.427Z,99919.16
2017-12-08T20:52:37.392Z,99915.70
2017-12-08T20:55:03.212Z,99915.17
2017-12-08T20:57:29.031Z,99916.69
2017-12-08T20:59:55.148Z,99912.44
2017-12-08T21:02:20.992Z,99917.06
2017-12-08T21:04:46.799Z,99918.66
2017-12-08T21:07:12.602Z,99909.11
2017-12-08T21:09:38.453Z,99907.22
2017-12-08T21:12:04.304Z,99913.30
2017-12-08T21:14:30.984Z,99912.11
2017-12-08T21:16:56.799Z,99915.13
2017-12-08T21:19:22.641Z,99908.89
2017-12-08T21:21:48.472Z,99909.91
2017-12-08T21:24:14.293Z,99899.27
2017-12-08T21:26:40.143Z,99889.92
2017-12-08T21:29:05.965Z,99880.14
2017-12-08T21:31:31.783Z,99870.05
2017-12-08T21:33:57.612Z,99856.98
2017-12-08T21:36:23.606Z,99841.09
2017-12-08T21:38:49.400Z,99852.73
2017-12-08T21:41:15.194Z,99867.95
2017-12-08T21:43:41.008Z,99865.42
2017-12-08T21:46:06.830Z,99868.50
2017-12-08T21:48:32.635Z,99865.48
2017-12-08T21:50:58.437Z,99859.83
2017-12-08T21:53:24.233Z,99852.59
2017-12-08T21:55:50.027Z,99849.63
2017-12-08T21:58:15.830Z,99849.45
2017-12-08T22:00:41.648Z,99840.75
2017-12-08T22:03:07.450Z,99834.31
2017-12-08T22:05:33.259Z,99828.07
2017-12-08T22:07:59.065Z,99832.64
2017-12-08T22:10:24.876Z,99828.56
2017-12-08T22:12:50.698Z,99833.77
2017-12-08T22:15:16.762Z,99838.83
2017-12-08T22:17:42.872Z,99841.98
2017-12-08T22:20:08.683Z,99839.95
2017-12-08T22:22:34.520Z,99838.71
2017-12-08T22:25:00.331Z,99835.59
2017-12-08T22:27:26.150Z,99833.88
2017-12-08T22:29:51.947Z,99824.58
2017-12-08T22:32:17.759Z,99832.91
2017-12-08T22:34:43.559Z,99828.62
2017-12-08T22:37:09.347Z,99831.52
2017-12-08T22:39:35.168Z,99825.83
2017-12-08T22:42:01.012Z,99826.84
2017-12-08T22:44:26.838Z,99819.33
2017-12-08T22:46:52.649Z,99815.73
2017-12-08T22:49:18.479Z,99818.89
2017-12-08T22:51:44.346Z,99819.33
2017-12-08T22:54:10.444Z,99813.89
2017-12-08T22:56:36.234Z,99819.44
2017-12-08T22:59:02.241Z,99822.08
2017-12-08T23:01:28.090Z,99837.59
2017-12-08T23:03:53.877Z,99824.49
2017-12-08T23:06:19.676Z,99837.66
2017-12-08T23:08:46.310Z,99841.89
2017-12-08T23:11:12.106Z,99828.90
2017-12-08T23:13:37.895Z,99827.92
2017-12-08T23:16:03.706Z,99833.63
2017-12-08T23:18:29.523Z,99830.45
2017-12-08T23:20:55.314Z,99827.92
2017-12-08T23:23:21.212Z,99823.58
2017-12-08T23:25:47.016Z,99819.70
2017-12-08T23:28:12.789Z,99823.47
2017-12-08T23:30:38.836Z,99814.88
2017-12-08T23:33:04.646Z,99818.69
2017-12-08T23:35:30.443Z,99820.73
2017-12-08T23:37:56.242Z,99820.15
2017-12-08T23:40:22.305Z,99821.17
2017-12-08T23:42:48.443Z,99821.06
2017-12-08T23:45:14.231Z,99827.34
2017-12-08T23:47:40.014Z,99824.34
2017-12-08T23:50:05.976Z,99825.66
2017-12-08T23:52:31.758Z,99814.77
2017-12-08T23:54:57.544Z,99823.74
2017-12-08T23:57:23.347Z,99819.98
2017-12-08T23:59:49.138Z,99820.50
